Anton, Colorado
Current Conditions -  °F | °C
As of 8:53 PM on Tuesday 21 Oct 2014 (Local Time) from KAKO Reporting Station
Clear Clear  
Wind Chill: 59°   Ceiling: Unl
Heat Index: 59°   Visibility: 10mi
Dew Point: 40°   Wind: 15mph
Humidity: 49%   Direction: 170°S
Pressure: 29.91"   Gusts: NA
Location:  39.74°N, 103.22°W
Report Text: KAKO 220253Z AUTO 17013KT 10SM CLR 15/04 A2991 RMK AO2 SLP095 T01500044 52006
Loading
Personal Weather Stations






























Interactive Weather Map
Tropical Storm Tracking
New forecast layout! Learn more

10-Day Weather Forecast

Advertisements
Track Severe Weather on mobile